sensor_id;sensor_type;location;lat;lon;timestamp;pressure;altitude;pressure_sealevel;temperature;humidity
81865;BME280;71313;43.514;1.500;2023-09-18T00:01:07;99420.69;;;24.33;67.42
81865;BME280;71313;43.514;1.500;2023-09-18T00:03:33;99421.53;;;24.33;66.81
81865;BME280;71313;43.514;1.500;2023-09-18T00:05:59;99416.47;;;24.37;66.51
81865;BME280;71313;43.514;1.500;2023-09-18T00:08:25;99420.72;;;24.39;66.95
81865;BME280;71313;43.514;1.500;2023-09-18T00:10:53;99419.25;;;24.43;67.04
81865;BME280;71313;43.514;1.500;2023-09-18T00:13:18;99423.88;;;24.43;67.35
81865;BME280;71313;43.514;1.500;2023-09-18T00:15:44;99432.31;;;24.41;67.78
81865;BME280;71313;43.514;1.500;2023-09-18T00:18:13;99430.44;;;24.42;66.71
81865;BME280;71313;43.514;1.500;2023-09-18T00:20:39;99432.94;;;24.37;67.25
81865;BME280;71313;43.514;1.500;2023-09-18T00:23:05;99440.34;;;24.43;67.36
81865;BME280;71313;43.514;1.500;2023-09-18T00:25:31;99433.16;;;24.42;67.40
81865;BME280;71313;43.514;1.500;2023-09-18T00:27:57;99430.84;;;24.39;67.52
81865;BME280;71313;43.514;1.500;2023-09-18T00:30:22;99435.69;;;24.37;67.19
81865;BME280;71313;43.514;1.500;2023-09-18T00:32:47;99442.44;;;24.41;67.47
81865;BME280;71313;43.514;1.500;2023-09-18T00:35:15;99449.41;;;24.43;67.38
81865;BME280;71313;43.514;1.500;2023-09-18T00:37:40;99443.69;;;24.38;67.53
81865;BME280;71313;43.514;1.500;2023-09-18T00:40:07;99435.69;;;24.37;66.67
81865;BME280;71313;43.514;1.500;2023-09-18T00:42:32;99439.47;;;24.36;66.94
81865;BME280;71313;43.514;1.500;2023-09-18T00:44:57;99439.25;;;24.37;66.70
81865;BME280;71313;43.514;1.500;2023-09-18T00:47:23;99443.50;;;24.40;67.41
81865;BME280;71313;43.514;1.500;2023-09-18T00:49:49;99440.34;;;24.43;67.36
81865;BME280;71313;43.514;1.500;2023-09-18T00:52:17;99454.06;;;24.43;67.46
81865;BME280;71313;43.514;1.500;2023-09-18T00:54:44;99438.22;;;24.38;66.91
81865;BME280;71313;43.514;1.500;2023-09-18T00:57:11;99441.81;;;24.39;67.23
81865;BME280;71313;43.514;1.500;2023-09-18T00:59:38;99444.13;;;24.42;67.25
81865;BME280;71313;43.514;1.500;2023-09-18T01:02:03;99450.66;;;24.41;67.10
81865;BME280;71313;43.514;1.500;2023-09-18T01:04:29;99439.91;;;24.39;67.53
81865;BME280;71313;43.514;1.500;2023-09-18T01:06:55;99441.81;;;24.39;67.75
81865;BME280;71313;43.514;1.500;2023-09-18T01:09:22;99435.69;;;24.37;67.84
81865;BME280;71313;43.514;1.500;2023-09-18T01:17:30;99428.28;;;24.31;67.29
81865;BME280;71313;43.514;1.500;2023-09-18T01:19:56;99429.97;;;24.32;67.97
81865;BME280;71313;43.514;1.500;2023-09-18T01:22:21;99431.84;;;24.31;67.13
81865;BME280;71313;43.514;1.500;2023-09-18T01:24:48;99433.75;;;24.31;66.92
81865;BME280;71313;43.514;1.500;2023-09-18T01:27:15;99430.38;;;24.28;67.21
81865;BME280;71313;43.514;1.500;2023-09-18T01:29:47;99424.03;;;24.28;67.64
81865;BME280;71313;43.514;1.500;2023-09-18T01:32:13;99425.94;;;24.27;67.42
81865;BME280;71313;43.514;1.500;2023-09-18T01:34:47;99422.78;;;24.31;67.11
81865;BME280;71313;43.514;1.500;2023-09-18T01:37:14;99427.63;;;24.28;67.04
81865;BME280;71313;43.514;1.500;2023-09-18T01:39:41;99421.50;;;24.26;67.40
81865;BME280;71313;43.514;1.500;2023-09-18T01:42:07;99410.06;;;24.23;67.72
81865;BME280;71313;43.514;1.500;2023-09-18T01:44:35;99433.91;;;24.22;67.56
81865;BME280;71313;43.514;1.500;2023-09-18T01:47:04;99439.78;;;24.19;67.57
81865;BME280;71313;43.514;1.500;2023-09-18T01:49:34;99442.53;;;24.19;66.44
81865;BME280;71313;43.514;1.500;2023-09-18T01:52:01;99431.78;;;24.18;66.42
81865;BME280;71313;43.514;1.500;2023-09-18T01:54:26;99423.97;;;24.15;66.80
81865;BME280;71313;43.514;1.500;2023-09-18T01:56:52;99422.22;;;24.07;66.17
81865;BME280;71313;43.514;1.500;2023-09-18T01:59:19;99434.88;;;24.08;67.01
81865;BME280;71313;43.514;1.500;2023-09-18T02:01:44;99431.50;;;24.06;66.52
81865;BME280;71313;43.514;1.500;2023-09-18T02:04:10;99426.44;;;24.03;66.64
81865;BME280;71313;43.514;1.500;2023-09-18T02:06:35;99417.59;;;24.08;67.50
81865;BME280;71313;43.514;1.500;2023-09-18T02:09:01;99411.69;;;24.04;67.12
81865;BME280;71313;43.514;1.500;2023-09-18T02:11:27;99413.38;;;24.05;67.28
81865;BME280;71313;43.514;1.500;2023-09-18T02:13:52;99403.88;;;24.01;66.89
81865;BME280;71313;43.514;1.500;2023-09-18T02:16:18;99403.88;;;24.01;67.34
81865;BME280;71313;43.514;1.500;2023-09-18T02:18:47;99405.31;;;23.97;67.00
81865;BME280;71313;43.514;1.500;2023-09-18T02:21:21;99406.56;;;23.94;67.07
81865;BME280;71313;43.514;1.500;2023-09-18T02:23:51;99401.69;;;23.90;67.18
81865;BME280;71313;43.514;1.500;2023-09-18T02:26:20;99414.34;;;23.91;67.32
81865;BME280;71313;43.514;1.500;2023-09-18T02:28:45;99428.69;;;23.93;66.90
81865;BME280;71313;43.514;1.500;2023-09-18T02:31:11;99417.09;;;23.91;67.26
81865;BME280;71313;43.514;1.500;2023-09-18T02:33:37;99418.78;;;23.92;67.39
81865;BME280;71313;43.514;1.500;2023-09-18T02:36:03;99414.56;;;23.89;67.45
81865;BME280;71313;43.514;1.500;2023-09-18T02:38:28;99403.16;;;23.86;67.59
81865;BME280;71313;43.514;1.500;2023-09-18T02:40:55;99410.31;;;23.87;67.43
81865;BME280;71313;43.514;1.500;2023-09-18T02:43:24;99406.94;;;23.85;66.83
81865;BME280;71313;43.514;1.500;2023-09-18T02:45:50;99402.91;;;23.81;67.50
81865;BME280;71313;43.514;1.500;2023-09-18T02:48:16;99401.88;;;23.82;67.19
81865;BME280;71313;43.514;1.500;2023-09-18T02:50:42;99403.56;;;23.83;67.32
81865;BME280;71313;43.514;1.500;2023-09-18T02:53:11;99402.72;;;23.82;67.21
81865;BME280;71313;43.514;1.500;2023-09-18T02:55:41;99389.63;;;23.78;67.73
81865;BME280;71313;43.514;1.500;2023-09-18T02:58:06;99389.63;;;23.78;67.22
81865;BME280;71313;43.514;1.500;2023-09-18T03:00:34;99378.63;;;23.71;67.31
81865;BME280;71313;43.514;1.500;2023-09-18T03:02:59;99393.38;;;23.70;67.17
81865;BME280;71313;43.514;1.500;2023-09-18T03:05:25;99405.19;;;23.71;67.29
81865;BME280;71313;43.514;1.500;2023-09-18T03:07:51;99390.84;;;23.69;66.88
81865;BME280;71313;43.514;1.500;2023-09-18T03:10:17;99397.75;;;23.64;66.65
81865;BME280;71313;43.514;1.500;2023-09-18T03:12:47;99402.59;;;23.62;66.42
81865;BME280;71313;43.514;1.500;2023-09-18T03:15:12;99395.44;;;23.61;66.47
81865;BME280;71313;43.514;1.500;2023-09-18T03:17:37;99395.63;;;23.60;66.91
81865;BME280;71313;43.514;1.500;2023-09-18T03:20:06;99401.31;;;23.58;67.41
81865;BME280;71313;43.514;1.500;2023-09-18T03:22:32;99413.97;;;23.59;66.85
81865;BME280;71313;43.514;1.500;2023-09-18T03:24:57;99413.97;;;23.59;67.01
81865;BME280;71313;43.514;1.500;2023-09-18T03:27:23;99409.31;;;23.60;67.30
81865;BME280;71313;43.514;1.500;2023-09-18T03:29:56;99409.53;;;23.58;67.21
81865;BME280;71313;43.514;1.500;2023-09-18T03:32:21;99405.94;;;23.58;66.97
81865;BME280;71313;43.514;1.500;2023-09-18T03:34:50;99402.59;;;23.62;67.29
81865;BME280;71313;43.514;1.500;2023-09-18T03:37:16;99389.09;;;23.61;67.27
81865;BME280;71313;43.514;1.500;2023-09-18T03:39:41;99387.84;;;23.63;67.65
81865;BME280;71313;43.514;1.500;2023-09-18T03:42:06;99388.91;;;23.62;67.16
81865;BME280;71313;43.514;1.500;2023-09-18T03:44:32;99383.44;;;23.62;67.52
81865;BME280;71313;43.514;1.500;2023-09-18T03:46:57;99383.81;;;23.59;68.09
81865;BME280;71313;43.514;1.500;2023-09-18T03:49:22;99391.19;;;23.59;67.53
81865;BME280;71313;43.514;1.500;2023-09-18T03:51:48;99395.81;;;23.58;67.93
81865;BME280;71313;43.514;1.500;2023-09-18T03:54:13;99395.44;;;23.61;67.48
81865;BME280;71313;43.514;1.500;2023-09-18T03:56:39;99372.88;;;23.59;67.53
81865;BME280;71313;43.514;1.500;2023-09-18T03:59:04;99364.66;;;23.59;67.31
81865;BME280;71313;43.514;1.500;2023-09-18T04:01:30;99356.84;;;23.56;67.85
81865;BME280;71313;43.514;1.500;2023-09-18T04:03:55;99367.16;;;23.54;67.67
81865;BME280;71313;43.514;1.500;2023-09-18T04:06:21;99366.22;;;23.47;67.95
81865;BME280;71313;43.514;1.500;2023-09-18T04:08:49;99384.34;;;23.48;67.57
81865;BME280;71313;43.514;1.500;2023-09-18T04:11:14;99387.75;;;23.50;67.64
81865;BME280;71313;43.514;1.500;2023-09-18T04:13:40;99400.38;;;23.51;67.40
81865;BME280;71313;43.514;1.500;2023-09-18T04:16:05;99397.00;;;23.49;67.81
81865;BME280;71313;43.514;1.500;2023-09-18T04:18:31;99393.63;;;23.47;67.46
81865;BME280;71313;43.514;1.500;2023-09-18T04:20:56;99393.22;;;23.50;67.79
81865;BME280;71313;43.514;1.500;2023-09-18T04:23:26;99391.53;;;23.49;67.24
81865;BME280;71313;43.514;1.500;2023-09-18T04:25:53;99397.00;;;23.49;67.70
81865;BME280;71313;43.514;1.500;2023-09-18T04:28:21;99395.06;;;23.43;68.39
81865;BME280;71313;43.514;1.500;2023-09-18T04:30:47;99405.63;;;23.46;67.96
81865;BME280;71313;43.514;1.500;2023-09-18T04:33:14;99401.19;;;23.45;67.96
81865;BME280;71313;43.514;1.500;2023-09-18T04:35:39;99402.88;;;23.46;67.70
81865;BME280;71313;43.514;1.500;2023-09-18T04:38:08;99408.75;;;23.43;68.18
81865;BME280;71313;43.514;1.500;2023-09-18T04:40:34;99402.63;;;23.41;67.64
81865;BME280;71313;43.514;1.500;2023-09-18T04:43:00;99407.06;;;23.42;67.94
81865;BME280;71313;43.514;1.500;2023-09-18T04:45:25;99415.06;;;23.44;67.50
81865;BME280;71313;43.514;1.500;2023-09-18T04:47:51;99414.22;;;23.43;68.09
81865;BME280;71313;43.514;1.500;2023-09-18T04:50:17;99408.75;;;23.43;68.08
81865;BME280;71313;43.514;1.500;2023-09-18T04:52:42;99409.59;;;23.44;68.48
81865;BME280;71313;43.514;1.500;2023-09-18T04:55:09;99404.31;;;23.42;67.94
81865;BME280;71313;43.514;1.500;2023-09-18T04:57:35;99403.72;;;23.40;67.42
81865;BME280;71313;43.514;1.500;2023-09-18T05:00:01;99400.75;;;23.42;68.41
81865;BME280;71313;43.514;1.500;2023-09-18T05:02:27;99402.88;;;23.40;68.16
81865;BME280;71313;43.514;1.500;2023-09-18T05:04:52;99402.03;;;23.39;67.51
81865;BME280;71313;43.514;1.500;2023-09-18T05:07:20;99393.56;;;23.34;67.92
81865;BME280;71313;43.514;1.500;2023-09-18T05:09:46;99395.25;;;23.35;67.37
81865;BME280;71313;43.514;1.500;2023-09-18T05:12:12;99389.97;;;23.34;68.28
81865;BME280;71313;43.514;1.500;2023-09-18T05:14:42;99397.34;;;23.33;68.06
81865;BME280;71313;43.514;1.500;2023-09-18T05:17:17;99402.81;;;23.33;67.64
81865;BME280;71313;43.514;1.500;2023-09-18T05:19:45;99400.47;;;23.30;67.81
81865;BME280;71313;43.514;1.500;2023-09-18T05:22:11;99396.44;;;23.26;67.63
81865;BME280;71313;43.514;1.500;2023-09-18T05:24:39;99396.69;;;23.31;67.80
81865;BME280;71313;43.514;1.500;2023-09-18T05:27:05;99392.47;;;23.28;68.62
81865;BME280;71313;43.514;1.500;2023-09-18T05:29:34;99396.69;;;23.31;68.73
81865;BME280;71313;43.514;1.500;2023-09-18T05:32:01;99392.25;;;23.30;68.69
81865;BME280;71313;43.514;1.500;2023-09-18T05:34:26;99393.94;;;23.31;68.91
81865;BME280;71313;43.514;1.500;2023-09-18T05:36:52;99384.06;;;23.30;68.22
81865;BME280;71313;43.514;1.500;2023-09-18T05:39:17;99389.91;;;23.27;68.95
81865;BME280;71313;43.514;1.500;2023-09-18T05:41:43;99399.81;;;23.28;68.60
81865;BME280;71313;43.514;1.500;2023-09-18T05:44:08;99416.69;;;23.31;68.62
81865;BME280;71313;43.514;1.500;2023-09-18T05:46:35;99407.44;;;23.33;68.72
81865;BME280;71313;43.514;1.500;2023-09-18T05:49:00;99402.41;;;23.36;68.35
81865;BME280;71313;43.514;1.500;2023-09-18T05:51:26;99412.97;;;23.39;69.03
81865;BME280;71313;43.514;1.500;2023-09-18T05:53:52;99407.88;;;23.36;68.80
81865;BME280;71313;43.514;1.500;2023-09-18T05:56:18;99421.78;;;23.41;68.74
81865;BME280;71313;43.514;1.500;2023-09-18T05:58:43;99420.75;;;23.42;68.98
81865;BME280;71313;43.514;1.500;2023-09-18T06:01:09;99414.00;;;23.38;69.25
81865;BME280;71313;43.514;1.500;2023-09-18T06:03:34;99427.06;;;23.43;68.76
81865;BME280;71313;43.514;1.500;2023-09-18T06:06:04;99436.59;;;23.47;69.06
81865;BME280;71313;43.514;1.500;2023-09-18T06:08:29;99425.19;;;23.43;68.98
81865;BME280;71313;43.514;1.500;2023-09-18T06:10:58;99415.91;;;23.44;68.98
81865;BME280;71313;43.514;1.500;2023-09-18T06:13:24;99415.28;;;23.42;68.99
81865;BME280;71313;43.514;1.500;2023-09-18T06:15:55;99415.91;;;23.38;69.18
81865;BME280;71313;43.514;1.500;2023-09-18T06:18:21;99415.47;;;23.34;69.58
81865;BME280;71313;43.514;1.500;2023-09-18T06:20:47;99414.16;;;23.30;69.53
81865;BME280;71313;43.514;1.500;2023-09-18T06:23:13;99405.69;;;23.25;69.29
81865;BME280;71313;43.514;1.500;2023-09-18T06:25:41;99424.22;;;23.23;69.68
81865;BME280;71313;43.514;1.500;2023-09-18T06:28:06;99427.16;;;23.21;69.47
81865;BME280;71313;43.514;1.500;2023-09-18T06:30:32;99422.91;;;23.19;69.75
81865;BME280;71313;43.514;1.500;2023-09-18T06:32:59;99426.69;;;23.18;70.29
81865;BME280;71313;43.514;1.500;2023-09-18T06:35:25;99424.34;;;23.15;69.50
81865;BME280;71313;43.514;1.500;2023-09-18T06:37:51;99431.72;;;23.14;69.76
81865;BME280;71313;43.514;1.500;2023-09-18T06:40:17;99429.84;;;23.15;70.51
81865;BME280;71313;43.514;1.500;2023-09-18T06:42:42;99432.56;;;23.15;70.23
81865;BME280;71313;43.514;1.500;2023-09-18T06:45:08;99434.66;;;23.13;70.77
81865;BME280;71313;43.514;1.500;2023-09-18T06:47:34;99439.34;;;23.19;71.41
81865;BME280;71313;43.514;1.500;2023-09-18T06:49:59;99431.13;;;23.19;71.08
81865;BME280;71313;43.514;1.500;2023-09-18T06:52:29;99429.50;;;23.24;70.89
81865;BME280;71313;43.514;1.500;2023-09-18T06:54:55;99430.78;;;23.28;71.50
81865;BME280;71313;43.514;1.500;2023-09-18T06:57:20;99436.72;;;23.32;71.45
81865;BME280;71313;43.514;1.500;2023-09-18T06:59:48;99427.84;;;23.30;71.08
81865;BME280;71313;43.514;1.500;2023-09-18T07:02:14;99437.38;;;23.34;71.05
81865;BME280;71313;43.514;1.500;2023-09-18T07:04:40;99441.78;;;23.35;71.44
81865;BME280;71313;43.514;1.500;2023-09-18T07:07:11;99447.91;;;23.37;71.33
81865;BME280;71313;43.514;1.500;2023-09-18T07:09:37;99451.69;;;23.36;71.22
81865;BME280;71313;43.514;1.500;2023-09-18T07:12:03;99458.47;;;23.40;71.06
81865;BME280;71313;43.514;1.500;2023-09-18T07:14:28;99451.31;;;23.39;71.34
81865;BME280;71313;43.514;1.500;2023-09-18T07:16:54;99461.81;;;23.42;71.67
81865;BME280;71313;43.514;1.500;2023-09-18T07:19:19;99469.00;;;23.43;71.18
81865;BME280;71313;43.514;1.500;2023-09-18T07:21:44;99481.63;;;23.44;71.69
81865;BME280;71313;43.514;1.500;2023-09-18T07:24:10;99498.72;;;23.46;71.78
81865;BME280;71313;43.514;1.500;2023-09-18T07:26:41;99500.22;;;23.49;72.11
81865;BME280;71313;43.514;1.500;2023-09-18T07:29:06;99500.66;;;23.52;72.15
81865;BME280;71313;43.514;1.500;2023-09-18T07:31:32;99497.75;;;23.54;71.34
81865;BME280;71313;43.514;1.500;2023-09-18T07:33:57;99502.84;;;23.57;71.40
81865;BME280;71313;43.514;1.500;2023-09-18T07:36:22;99494.44;;;23.58;71.55
81865;BME280;71313;43.514;1.500;2023-09-18T07:38:48;99497.81;;;23.60;71.52
81865;BME280;71313;43.514;1.500;2023-09-18T07:41:13;99499.50;;;23.61;71.17
81865;BME280;71313;43.514;1.500;2023-09-18T07:43:40;99505.00;;;23.61;71.36
81865;BME280;71313;43.514;1.500;2023-09-18T07:46:06;99518.09;;;23.66;71.46
81865;BME280;71313;43.514;1.500;2023-09-18T07:48:32;99524.41;;;23.67;71.43
81865;BME280;71313;43.514;1.500;2023-09-18T07:50:57;99526.09;;;23.68;71.13
81865;BME280;71313;43.514;1.500;2023-09-18T07:53:23;99518.53;;;23.70;71.49
81865;BME280;71313;43.514;1.500;2023-09-18T07:55:55;99521.06;;;23.71;70.72
81865;BME280;71313;43.514;1.500;2023-09-18T07:58:21;99518.13;;;23.73;71.06
81865;BME280;71313;43.514;1.500;2023-09-18T08:00:47;99523.88;;;23.78;70.92
81865;BME280;71313;43.514;1.500;2023-09-18T08:03:13;99528.31;;;23.79;70.90
81865;BME280;71313;43.514;1.500;2023-09-18T08:05:39;99532.34;;;23.83;71.29
81865;BME280;71313;43.514;1.500;2023-09-18T08:08:05;99533.84;;;23.85;71.64
81865;BME280;71313;43.514;1.500;2023-09-18T08:10:30;99528.34;;;23.85;70.87
81865;BME280;71313;43.514;1.500;2023-09-18T08:12:56;99533.44;;;23.88;71.27
81865;BME280;71313;43.514;1.500;2023-09-18T08:15:21;99543.16;;;23.91;70.75
81865;BME280;71313;43.514;1.500;2023-09-18T08:17:47;99543.78;;;23.93;71.01
81865;BME280;71313;43.514;1.500;2023-09-18T08:20:15;99529.69;;;23.96;71.17
81865;BME280;71313;43.514;1.500;2023-09-18T08:22:41;99536.22;;;23.95;70.37
81865;BME280;71313;43.514;1.500;2023-09-18T08:25:07;99539.22;;;24.00;70.94
81865;BME280;71313;43.514;1.500;2023-09-18T08:27:40;99547.03;;;24.03;70.11
81865;BME280;71313;43.514;1.500;2023-09-18T08:30:13;99549.56;;;24.05;70.51
81865;BME280;71313;43.514;1.500;2023-09-18T08:32:39;99548.31;;;24.07;70.43
81865;BME280;71313;43.514;1.500;2023-09-18T08:35:05;99550.66;;;24.10;70.70
81865;BME280;71313;43.514;1.500;2023-09-18T08:37:32;99549.22;;;24.14;70.18
81865;BME280;71313;43.514;1.500;2023-09-18T08:39:57;99561.66;;;24.17;70.32
81865;BME280;71313;43.514;1.500;2023-09-18T08:42:26;99562.75;;;24.22;70.23
81865;BME280;71313;43.514;1.500;2023-09-18T08:44:58;99557.75;;;24.26;70.52
81865;BME280;71313;43.514;1.500;2023-09-18T08:47:24;99569.16;;;24.30;69.40
81865;BME280;71313;43.514;1.500;2023-09-18T08:49:51;99565.38;;;24.31;69.11
81865;BME280;71313;43.514;1.500;2023-09-18T08:52:18;99568.78;;;24.33;68.95
81865;BME280;71313;43.514;1.500;2023-09-18T08:54:45;99581.03;;;24.37;68.82
81865;BME280;71313;43.514;1.500;2023-09-18T08:57:11;99577.22;;;24.38;67.73
81865;BME280;71313;43.514;1.500;2023-09-18T08:59:39;99577.69;;;24.41;68.25
81865;BME280;71313;43.514;1.500;2023-09-18T09:02:04;99572.84;;;24.43;67.85
81865;BME280;71313;43.514;1.500;2023-09-18T09:04:30;99581.50;;;24.47;66.91
81865;BME280;71313;43.514;1.500;2023-09-18T09:06:55;99566.75;;;24.48;67.15
81865;BME280;71313;43.514;1.500;2023-09-18T09:09:25;99571.81;;;24.51;67.04
81865;BME280;71313;43.514;1.500;2023-09-18T09:11:52;99575.84;;;24.55;67.04
81865;BME280;71313;43.514;1.500;2023-09-18T09:14:17;99585.38;;;24.59;67.08
81865;BME280;71313;43.514;1.500;2023-09-18T09:16:50;99582.88;;;24.64;66.28
81865;BME280;71313;43.514;1.500;2023-09-18T09:19:17;99578.84;;;24.60;65.19
81865;BME280;71313;43.514;1.500;2023-09-18T09:21:43;99590.47;;;24.69;65.52
81865;BME280;71313;43.514;1.500;2023-09-18T09:24:10;99592.63;;;24.73;65.70
81865;BME280;71313;43.514;1.500;2023-09-18T09:26:42;99585.22;;;24.74;65.39
81865;BME280;71313;43.514;1.500;2023-09-18T09:29:26;99589.91;;;24.80;65.22
81865;BME280;71313;43.514;1.500;2023-09-18T09:31:51;99590.34;;;24.83;64.70
81865;BME280;71313;43.514;1.500;2023-09-18T09:34:26;99591.63;;;24.87;64.29
81865;BME280;71313;43.514;1.500;2023-09-18T09:36:53;99596.50;;;24.92;63.93
81865;BME280;71313;43.514;1.500;2023-09-18T09:39:18;99596.72;;;24.90;63.59
81865;BME280;71313;43.514;1.500;2023-09-18T09:41:47;99599.94;;;25.01;64.01
81865;BME280;71313;43.514;1.500;2023-09-18T09:44:14;99602.28;;;25.04;64.21
81865;BME280;71313;43.514;1.500;2023-09-18T09:46:50;99617.28;;;25.08;63.15
81865;BME280;71313;43.514;1.500;2023-09-18T09:49:17;99615.19;;;25.10;63.09
81865;BME280;71313;43.514;1.500;2023-09-18T09:51:45;99616.47;;;25.14;62.17
81865;BME280;71313;43.514;1.500;2023-09-18T09:54:10;99617.34;;;25.21;62.27
81865;BME280;71313;43.514;1.500;2023-09-18T09:56:47;99616.50;;;25.27;62.15
81865;BME280;71313;43.514;1.500;2023-09-18T09:59:14;99623.28;;;25.31;62.37
81865;BME280;71313;43.514;1.500;2023-09-18T10:01:40;99618.00;;;25.36;61.81
81865;BME280;71313;43.514;1.500;2023-09-18T10:04:14;99618.66;;;25.38;61.13
81865;BME280;71313;43.514;1.500;2023-09-18T10:06:44;99619.94;;;25.42;60.72
81865;BME280;71313;43.514;1.500;2023-09-18T10:09:12;99626.28;;;25.49;60.01
81865;BME280;71313;43.514;1.500;2023-09-18T10:11:41;99629.25;;;25.54;59.97
81865;BME280;71313;43.514;1.500;2023-09-18T10:14:13;99618.69;;;25.58;60.14
81865;BME280;71313;43.514;1.500;2023-09-18T10:16:45;99619.13;;;25.62;58.94
81865;BME280;71313;43.514;1.500;2023-09-18T10:19:21;99625.09;;;25.72;59.86
81865;BME280;71313;43.514;1.500;2023-09-18T10:22:00;99625.94;;;25.79;59.05
81865;BME280;71313;43.514;1.500;2023-09-18T10:24:34;99634.41;;;25.84;59.03
81865;BME280;71313;43.514;1.500;2023-09-18T10:27:02;99638.22;;;25.90;57.40
81865;BME280;71313;43.514;1.500;2023-09-18T10:29:29;99642.03;;;25.95;57.02
81865;BME280;71313;43.514;1.500;2023-09-18T10:31:55;99645.63;;;25.96;56.81
81865;BME280;71313;43.514;1.500;2023-09-18T10:34:23;99657.84;;;26.06;55.95
81865;BME280;71313;43.514;1.500;2023-09-18T10:36:50;99652.56;;;26.11;55.90
81865;BME280;71313;43.514;1.500;2023-09-18T10:39:16;99658.91;;;26.18;55.97
81865;BME280;71313;43.514;1.500;2023-09-18T10:41:49;99650.25;;;26.28;55.36
81865;BME280;71313;43.514;1.500;2023-09-18T10:44:16;99652.59;;;26.38;55.59
81865;BME280;71313;43.514;1.500;2023-09-18T10:46:46;99656.81;;;26.47;55.33
81865;BME280;71313;43.514;1.500;2023-09-18T10:49:11;99656.16;;;26.58;56.37
81865;BME280;71313;43.514;1.500;2023-09-18T10:51:37;99656.75;;;26.73;56.14
81865;BME280;71313;43.514;1.500;2023-09-18T10:54:08;99657.34;;;26.89;55.76
81865;BME280;71313;43.514;1.500;2023-09-18T10:56:34;99655.03;;;26.99;54.85
81865;BME280;71313;43.514;1.500;2023-09-18T10:59:00;99659.63;;;27.11;53.98
81865;BME280;71313;43.514;1.500;2023-09-18T11:01:28;99656.41;;;27.21;53.07
81865;BME280;71313;43.514;1.500;2023-09-18T11:03:59;99658.25;;;27.34;52.49
81865;BME280;71313;43.514;1.500;2023-09-18T11:06:26;99657.38;;;27.40;52.71
81865;BME280;71313;43.514;1.500;2023-09-18T11:09:00;99646.69;;;27.57;52.69
81865;BME280;71313;43.514;1.500;2023-09-18T11:11:27;99636.84;;;27.74;52.27
81865;BME280;71313;43.514;1.500;2023-09-18T11:13:56;99646.78;;;28.06;51.55
81865;BME280;71313;43.514;1.500;2023-09-18T11:21:29;99640.97;;;29.67;46.64
81865;BME280;71313;43.514;1.500;2023-09-18T11:24:05;99641.81;;;30.10;46.54
81865;BME280;71313;43.514;1.500;2023-09-18T11:26:31;99646.78;;;30.43;45.49
81865;BME280;71313;43.514;1.500;2023-09-18T11:29:03;99643.16;;;30.89;43.90
81865;BME280;71313;43.514;1.500;2023-09-18T11:31:53;99637.25;;;31.37;43.50
81865;BME280;71313;43.514;1.500;2023-09-18T11:34:27;99639.75;;;31.95;43.49
81865;BME280;71313;43.514;1.500;2023-09-18T11:37:20;99633.75;;;32.32;42.03
81865;BME280;71313;43.514;1.500;2023-09-18T11:39:46;99635.22;;;32.56;41.22
81865;BME280;71313;43.514;1.500;2023-09-18T11:42:17;99627.13;;;32.72;41.77
81865;BME280;71313;43.514;1.500;2023-09-18T11:44:43;99630.16;;;32.87;40.54
81865;BME280;71313;43.514;1.500;2023-09-18T11:47:16;99629.75;;;33.00;41.12
81865;BME280;71313;43.514;1.500;2023-09-18T11:52:25;99623.28;;;33.16;39.19
81865;BME280;71313;43.514;1.500;2023-09-18T11:54:51;99620.56;;;33.21;39.49
81865;BME280;71313;43.514;1.500;2023-09-18T11:57:20;99626.97;;;33.22;38.56
81865;BME280;71313;43.514;1.500;2023-09-18T11:59:45;99610.56;;;33.20;39.76
81865;BME280;71313;43.514;1.500;2023-09-18T12:02:12;99602.09;;;33.10;39.85
81865;BME280;71313;43.514;1.500;2023-09-18T12:04:46;99607.59;;;33.05;39.86
81865;BME280;71313;43.514;1.500;2023-09-18T12:07:13;99609.72;;;32.98;39.17
81865;BME280;71313;43.514;1.500;2023-09-18T12:09:39;99603.84;;;32.95;39.35
81865;BME280;71313;43.514;1.500;2023-09-18T12:12:08;99603.72;;;32.84;38.68
81865;BME280;71313;43.514;1.500;2023-09-18T12:14:34;99600.34;;;32.82;39.18
81865;BME280;71313;43.514;1.500;2023-09-18T12:17:01;99593.56;;;32.95;38.19
81865;BME280;71313;43.514;1.500;2023-09-18T12:19:30;99599.25;;;33.05;37.13
81865;BME280;71313;43.514;1.500;2023-09-18T12:21:56;99593.34;;;33.23;37.68
81865;BME280;71313;43.514;1.500;2023-09-18T12:24:23;99594.81;;;33.53;37.55
81865;BME280;71313;43.514;1.500;2023-09-18T12:26:49;99592.19;;;33.68;36.75
81865;BME280;71313;43.514;1.500;2023-09-18T12:29:15;99588.44;;;33.84;36.28
81865;BME280;71313;43.514;1.500;2023-09-18T12:31:41;99596.97;;;34.05;36.68
81865;BME280;71313;43.514;1.500;2023-09-18T12:34:14;99600.44;;;34.22;36.40
81865;BME280;71313;43.514;1.500;2023-09-18T12:36:42;99595.44;;;34.24;36.46
81865;BME280;71313;43.514;1.500;2023-09-18T12:39:08;99593.38;;;34.09;36.09
81865;BME280;71313;43.514;1.500;2023-09-18T12:41:35;99594.44;;;33.71;36.41
81865;BME280;71313;43.514;1.500;2023-09-18T12:44:01;99598.66;;;33.25;37.61
81865;BME280;71313;43.514;1.500;2023-09-18T12:46:29;99591.34;;;32.97;36.45
81865;BME280;71313;43.514;1.500;2023-09-18T12:48:55;99597.81;;;32.81;37.74
81865;BME280;71313;43.514;1.500;2023-09-18T12:51:31;99598.84;;;32.58;37.72
81865;BME280;71313;43.514;1.500;2023-09-18T12:54:00;99599.25;;;32.28;37.28
81865;BME280;71313;43.514;1.500;2023-09-18T12:56:31;99602.59;;;31.96;37.04
81865;BME280;71313;43.514;1.500;2023-09-18T12:58:57;99597.69;;;31.70;38.07
81865;BME280;71313;43.514;1.500;2023-09-18T13:01:24;99608.13;;;31.51;37.67
81865;BME280;71313;43.514;1.500;2023-09-18T13:03:49;99597.59;;;31.37;38.76
81865;BME280;71313;43.514;1.500;2023-09-18T13:06:17;99608.47;;;31.26;38.99
81865;BME280;71313;43.514;1.500;2023-09-18T13:08:43;99606.63;;;31.15;38.44
81865;BME280;71313;43.514;1.500;2023-09-18T13:11:08;99611.31;;;31.03;38.61
81865;BME280;71313;43.514;1.500;2023-09-18T13:13:36;99614.13;;;30.91;39.30